Hauptseite
METAR-TAF:

METAR-TAF

Flughäfen :

Helipuerto de Algeciras

Algeciras, Spanien

Breite: 36-07-44N, Länge: 05-26-28W, Höhe: 30 m

Beobachtung

Neuester Wetterbericht von vor 44 Minuten, um 11:30 UTC
Wind 13 kt aus Ost, Böen bis zu 23 kt, variierte zwischen Ost/Nordost und Südost
Temperatur 16°C
Luftfeuchtigkeit 94%
Luftdruck 1023 hPa
Sichtweite 10 km oder mehr
Durchbrochene Bewölkung in der Höhe von 2100 ft

METAR: LEAG 081130Z AUTO 09013G23KT 070V140 9999 BKN021 16/15 Q1023

Zeit: 14:14 (12:14 UTC)


TAF: fehlend

Wetterbeobachtungen und Prognosen von mehr als 4000 Flughäfen (METAR und TAF Bericht).

Die verfügbaren Stationen werden durch gelbe und rote Markierungen auf der Karte dargestellt.

Führen Sie die Maus auf sie, um den Namen der Station zu sehen.

Darauf klicken, um die Beobachtung von Wetterbeobachtungen und Prognosen zu sehen.

Um die Karte zu ändern : klicken Sie auf den grünen Tasten mit einem schwarzen Kreuz Zum Vergrößern, auf den grünen Button mit einem Gedankenstrich zu verkleinern, oder auf die grünen Pfeile für benachbarte Karten.


METAR-TAF: